Time;durP1;ratioP1;P1;durP2;ratioP2;P2;SDS_P1;SDS_P2;PMS_P1;PMS_P2;Temp;Humidity;BMP_temperature;BMP_pressure;BME280_temperature;BME280_humidity;BME280_pressure;Samples;Min_cycle;Max_cycle;Signal;HPM_P1;HPM_P2
2023/10/15 00:01:32;;;;;;;13.68;2.65;;;8.80;99.90;;;;;;5033545;28;20294;-64
2023/10/15 00:03:58;;;;;;;10.43;2.97;;;8.70;99.90;;;;;;5033730;28;20211;-65
2023/10/15 00:06:24;;;;;;;8.05;2.50;;;8.70;99.90;;;;;;5016707;28;20285;-63
2023/10/15 00:08:50;;;;;;;12.10;2.60;;;8.70;99.90;;;;;;5034065;28;20542;-64
2023/10/15 00:11:21;;;;;;;8.30;2.70;;;8.70;99.90;;;;;;5033610;28;20223;-64
2023/10/15 00:13:48;;;;;;;9.35;2.65;;;8.70;99.90;;;;;;5033601;28;20165;-63
2023/10/15 00:16:18;;;;;;;8.75;3.03;;;8.70;99.90;;;;;;5016322;28;20190;-65
2023/10/15 00:18:44;;;;;;;8.82;2.40;;;8.60;99.90;;;;;;5033752;28;20172;-65
2023/10/15 00:21:13;;;;;;;10.23;2.50;;;8.60;99.90;;;;;;5033784;28;20263;-64
2023/10/15 00:23:44;;;;;;;11.35;2.53;;;8.60;99.90;;;;;;5033649;28;20234;-64
2023/10/15 00:26:14;;;;;;;14.68;2.88;;;8.60;99.90;;;;;;5032800;28;20671;-66
2023/10/15 00:28:46;;;;;;;11.45;2.70;;;8.60;99.90;;;;;;5016260;28;20176;-64
2023/10/15 00:31:16;;;;;;;8.65;2.28;;;8.60;99.90;;;;;;5015658;28;20192;-64
2023/10/15 00:33:44;;;;;;;12.30;2.97;;;8.60;99.90;;;;;;5032337;28;20182;-63
2023/10/15 00:36:13;;;;;;;15.52;2.50;;;8.50;99.90;;;;;;4999460;28;20180;-63
2023/10/15 00:38:44;;;;;;;9.68;2.47;;;8.50;99.90;;;;;;5033838;28;20188;-64
2023/10/15 00:41:15;;;;;;;8.40;2.20;;;8.50;99.90;;;;;;5033443;28;20222;-63
2023/10/15 00:43:59;;;;;;;12.13;2.42;;;8.50;99.90;;;;;;5016153;28;20173;-64
2023/10/15 00:46:32;;;;;;;8.68;2.20;;;8.40;99.90;;;;;;4999502;28;20195;-64
2023/10/15 00:49:09;;;;;;;7.82;2.15;;;8.40;99.90;;;;;;5033330;28;20330;-64
2023/10/15 00:51:41;;;;;;;12.68;2.30;;;8.40;99.90;;;;;;5033752;28;20233;-64
2023/10/15 00:54:15;;;;;;;15.15;2.50;;;8.40;99.90;;;;;;5033078;28;20250;-64
2023/10/15 00:56:44;;;;;;;10.48;2.30;;;8.40;99.90;;;;;;5033583;28;20168;-63
2023/10/15 00:59:18;;;;;;;7.10;1.90;;;8.40;99.90;;;;;;5032759;28;20182;-63
2023/10/15 01:04:31;;;;;;;9.68;2.22;;;8.40;99.90;;;;;;5015344;28;20176;-63
2023/10/15 01:07:14;;;;;;;6.90;2.08;;;8.40;99.90;;;;;;5033483;28;20613;-63
2023/10/15 01:09:40;;;;;;;8.00;2.10;;;8.40;99.90;;;;;;5015843;28;20664;-64
2023/10/15 01:12:24;;;;;;;11.75;1.90;;;8.50;99.90;;;;;;5015328;28;20255;-63
2023/10/15 01:14:50;;;;;;;9.10;1.90;;;8.50;99.90;;;;;;5016067;28;20203;-63
2023/10/15 01:17:16;;;;;;;12.30;2.20;;;8.60;99.90;;;;;;4982784;28;20628;-64
2023/10/15 01:19:42;;;;;;;11.65;2.13;;;8.60;99.90;;;;;;5033254;28;20199;-63
2023/10/15 01:22:17;;;;;;;10.10;2.22;;;8.70;99.90;;;;;;5033068;28;20253;-64
2023/10/15 01:24:45;;;;;;;12.85;2.08;;;8.80;99.90;;;;;;5033062;28;20183;-64
2023/10/15 01:27:13;;;;;;;10.15;1.80;;;8.90;99.90;;;;;;5032132;28;20172;-63
2023/10/15 01:29:40;;;;;;;10.15;1.80;;;9.00;99.90;;;;;;5015297;28;20216;-62
2023/10/15 01:32:11;;;;;;;7.97;1.98;;;9.00;99.90;;;;;;5032769;28;20188;-63
2023/10/15 01:34:40;;;;;;;7.85;1.80;;;9.10;99.90;;;;;;5032346;28;20164;-62
2023/10/15 01:37:21;;;;;;;9.50;2.10;;;9.10;99.90;;;;;;5032606;28;20176;-64
2023/10/15 01:40:24;;;;;;;9.77;2.42;;;9.00;99.90;;;;;;5015565;28;20174;-63
2023/10/15 01:42:53;;;;;;;15.20;2.13;;;8.80;99.90;;;;;;5032248;28;20215;-62
2023/10/15 01:45:31;;;;;;;7.93;2.17;;;8.60;99.90;;;;;;4998943;28;20279;-61
2023/10/15 01:48:05;;;;;;;15.57;1.95;;;8.30;99.90;;;;;;5015553;28;20609;-61
2023/10/15 01:50:44;;;;;;;8.20;2.00;;;8.00;99.90;;;;;;5033927;28;20222;-61
2023/10/15 01:53:11;;;;;;;11.95;1.92;;;7.80;99.90;;;;;;5032822;28;20256;-60
2023/10/15 01:55:52;;;;;;;13.13;1.90;;;7.70;99.90;;;;;;5015357;28;20550;-61
2023/10/15 01:58:19;;;;;;;10.40;2.10;;;7.60;99.90;;;;;;5015436;28;20243;-61
2023/10/15 02:00:45;;;;;;;11.15;2.20;;;7.50;99.90;;;;;;4999033;28;20208;-62
2023/10/15 02:03:11;;;;;;;11.52;2.55;;;7.40;99.90;;;;;;5032257;28;20208;-61
2023/10/15 02:05:42;;;;;;;14.18;3.17;;;7.30;99.90;;;;;;5000256;28;20207;-62
2023/10/15 02:08:08;;;;;;;16.48;3.55;;;7.30;99.90;;;;;;5018852;28;20490;-61
2023/10/15 02:10:39;;;;;;;12.55;3.28;;;7.30;99.90;;;;;;5018228;28;20180;-61
2023/10/15 02:13:08;;;;;;;11.20;3.38;;;7.20;99.90;;;;;;5018036;28;20241;-62
2023/10/15 02:15:39;;;;;;;18.23;3.58;;;7.20;99.90;;;;;;5018328;28;20186;-61
2023/10/15 02:18:13;;;;;;;14.77;4.20;;;7.20;99.90;;;;;;5036186;28;20169;-61
2023/10/15 02:20:45;;;;;;;17.33;4.05;;;7.20;99.90;;;;;;5018568;28;20171;-61
2023/10/15 02:23:20;;;;;;;13.38;3.78;;;7.10;99.90;;;;;;5036149;28;20200;-62
2023/10/15 02:25:58;;;;;;;6.97;2.75;;;7.10;99.90;;;;;;4986403;28;20644;-61
2023/10/15 02:28:36;;;;;;;10.90;2.50;;;7.10;99.90;;;;;;5035633;28;20172;-61
2023/10/15 02:33:34;;;;;;;11.13;2.75;;;7.10;99.90;;;;;;5018638;28;20616;-61
2023/10/15 02:36:03;;;;;;;11.18;2.72;;;7.10;99.90;;;;;;5035687;28;20192;-61
2023/10/15 02:38:34;;;;;;;11.40;2.67;;;7.10;99.90;;;;;;5035546;28;20628;-61
2023/10/15 02:41:05;;;;;;;8.13;2.85;;;7.10;99.90;;;;;;5018435;28;20171;-62
2023/10/15 02:43:40;;;;;;;8.32;3.10;;;7.10;99.90;;;;;;5035367;28;20208;-62
2023/10/15 02:46:47;;;;;;;12.57;3.35;;;7.10;99.90;;;;;;5035468;28;20168;-62
2023/10/15 02:48:59;;;;;;;12.73;2.67;;;7.10;99.90;;;;;;5032128;28;20293;-62
2023/10/15 02:51:25;;;;;;;18.73;3.00;;;7.10;99.90;;;;;;5035560;28;20183;-60
2023/10/15 02:53:52;;;;;;;12.85;2.70;;;7.10;99.90;;;;;;5017340;28;20191;-62
2023/10/15 02:56:20;;;;;;;12.32;2.08;;;7.10;99.90;;;;;;5017643;28;20188;-62
2023/10/15 02:58:46;;;;;;;9.15;1.98;;;7.20;99.90;;;;;;5035493;28;20180;-61
2023/10/15 03:01:17;;;;;;;10.45;2.45;;;7.20;99.90;;;;;;5017170;28;20224;-61
2023/10/15 03:03:52;;;;;;;11.65;2.20;;;7.20;99.90;;;;;;5017493;28;20264;-62
2023/10/15 03:06:24;;;;;;;7.15;2.17;;;7.20;99.90;;;;;;5035123;28;20225;-62
2023/10/15 03:08:51;;;;;;;12.07;2.00;;;7.20;99.90;;;;;;5035269;28;20160;-62
2023/10/15 03:11:21;;;;;;;8.90;1.85;;;7.30;99.90;;;;;;5016975;28;20180;-60
2023/10/15 03:13:55;;;;;;;9.65;1.40;;;7.30;99.90;;;;;;5034605;28;20694;-61
2023/10/15 03:16:30;;;;;;;8.63;1.67;;;7.30;99.90;;;;;;5016909;28;20569;-60
2023/10/15 03:18:56;;;;;;;9.13;1.75;;;7.20;99.90;;;;;;5017500;28;20563;-61
2023/10/15 03:21:26;;;;;;;13.50;1.90;;;7.30;99.90;;;;;;5016699;28;20271;-63
2023/10/15 03:23:56;;;;;;;10.02;1.75;;;7.30;99.90;;;;;;5034528;28;20160;-60
2023/10/15 03:26:31;;;;;;;10.38;1.50;;;7.30;99.90;;;;;;5000950;28;20175;-60
2023/10/15 03:29:00;;;;;;;5.68;1.15;;;7.30;99.90;;;;;;5034945;28;20159;-62
2023/10/15 03:31:31;;;;;;;7.78;2.05;;;7.30;99.90;;;;;;5034302;28;20188;-62
2023/10/15 03:36:43;;;;;;;10.25;1.52;;;7.20;99.90;;;;;;5034323;28;20187;-61
2023/10/15 03:39:15;;;;;;;7.47;1.52;;;7.30;99.90;;;;;;5034172;28;20314;-61
2023/10/15 03:41:49;;;;;;;7.00;1.48;;;7.20;99.90;;;;;;5034054;28;20592;-59
2023/10/15 03:44:23;;;;;;;7.35;1.60;;;7.20;99.90;;;;;;5034391;28;20176;-60
2023/10/15 03:46:49;;;;;;;4.57;1.50;;;7.20;99.90;;;;;;5034395;28;20204;-60
2023/10/15 03:49:20;;;;;;;7.15;1.40;;;7.10;99.90;;;;;;5033769;28;20369;-61
2023/10/15 03:51:48;;;;;;;7.10;1.40;;;7.10;99.90;;;;;;5016987;28;20181;-61
2023/10/15 03:54:14;;;;;;;5.05;1.58;;;7.10;99.90;;;;;;5033800;28;20660;-61
2023/10/15 03:56:43;;;;;;;3.85;1.70;;;7.10;99.90;;;;;;5016393;28;20193;-60
2023/10/15 03:59:12;;;;;;;3.47;1.30;;;7.10;99.90;;;;;;5034567;28;20262;-61
2023/10/15 04:01:43;;;;;;;6.28;1.25;;;7.10;99.90;;;;;;5033729;28;20207;-61
2023/10/15 04:04:09;;;;;;;5.70;1.30;;;7.10;99.90;;;;;;5033933;28;20184;-60
2023/10/15 04:06:35;;;;;;;8.20;1.58;;;7.10;99.90;;;;;;5033946;28;20191;-60
2023/10/15 04:11:30;;;;;;;6.82;1.38;;;7.10;99.90;;;;;;5033627;28;20188;-60
2023/10/15 04:14:08;;;;;;;5.18;1.20;;;7.10;99.90;;;;;;5016304;28;20270;-60
2023/10/15 04:16:34;;;;;;;4.80;1.30;;;7.10;99.90;;;;;;5034085;28;20267;-61
2023/10/15 04:19:00;;;;;;;2.83;1.20;;;7.10;99.90;;;;;;5033760;28;20204;-63
2023/10/15 04:21:27;;;;;;;3.28;1.30;;;7.10;99.90;;;;;;5034096;28;20180;-61
2023/10/15 04:23:56;;;;;;;3.10;1.25;;;7.10;99.90;;;;;;4999762;28;20188;-60
2023/10/15 04:26:28;;;;;;;3.33;1.20;;;7.10;99.90;;;;;;5033285;28;20191;-60
2023/10/15 04:28:54;;;;;;;5.57;1.38;;;7.10;99.90;;;;;;5033352;28;20673;-60
2023/10/15 04:31:22;;;;;;;4.55;1.25;;;7.10;99.90;;;;;;5033288;28;20644;-60
2023/10/15 04:33:55;;;;;;;4.82;1.17;;;7.10;99.90;;;;;;5033656;28;20214;-60
2023/10/15 04:36:22;;;;;;;5.70;2.05;;;7.10;99.90;;;;;;5015825;28;20168;-61
2023/10/15 04:38:57;;;;;;;7.38;2.20;;;7.10;99.90;;;;;;5015740;28;20179;-61
2023/10/15 04:41:23;;;;;;;5.65;1.85;;;7.00;99.90;;;;;;5033064;28;20250;-61
2023/10/15 04:43:49;;;;;;;5.35;1.60;;;7.10;99.90;;;;;;5033443;28;20696;-60
2023/10/15 04:46:19;;;;;;;7.13;1.38;;;7.10;99.90;;;;;;5032955;28;20222;-60
2023/10/15 04:48:46;;;;;;;6.75;1.48;;;7.10;99.90;;;;;;4998983;28;20346;-60
2023/10/15 04:51:13;;;;;;;3.72;1.30;;;7.00;99.90;;;;;;5033213;28;20180;-61
2023/10/15 04:53:44;;;;;;;3.88;1.70;;;7.00;99.90;;;;;;5032992;28;20241;-60
2023/10/15 04:56:11;;;;;;;6.05;1.77;;;7.00;99.90;;;;;;5033630;28;20226;-61
2023/10/15 04:58:37;;;;;;;2.67;1.70;;;7.00;99.90;;;;;;5033419;28;20616;-62
2023/10/15 05:01:04;;;;;;;5.95;1.65;;;7.00;99.90;;;;;;5033243;28;20191;-62
2023/10/15 05:03:32;;;;;;;6.95;2.25;;;7.00;99.90;;;;;;5015105;28;20207;-61
2023/10/15 05:06:06;;;;;;;6.38;1.65;;;7.00;99.90;;;;;;5032896;28;20275;-61
2023/10/15 05:08:35;;;;;;;6.15;1.70;;;7.00;99.90;;;;;;5033496;28;20172;-62
2023/10/15 05:11:00;;;;;;;9.75;2.17;;;7.00;99.90;;;;;;5015278;28;20183;-62
2023/10/15 05:13:26;;;;;;;6.82;2.38;;;7.00;99.90;;;;;;5033285;28;20183;-62
2023/10/15 05:15:52;;;;;;;9.18;2.33;;;7.10;99.90;;;;;;5033210;28;20587;-62
2023/10/15 05:18:19;;;;;;;7.90;2.22;;;7.10;99.90;;;;;;5032613;28;20207;-62
2023/10/15 05:20:50;;;;;;;6.97;1.98;;;7.10;99.90;;;;;;5015690;28;20179;-63
2023/10/15 05:23:17;;;;;;;6.00;1.70;;;7.10;99.90;;;;;;5015142;28;20231;-61
2023/10/15 05:25:43;;;;;;;5.55;1.58;;;7.10;99.90;;;;;;5032842;28;20659;-62
2023/10/15 05:28:14;;;;;;;10.50;1.80;;;7.10;99.90;;;;;;5033239;28;20186;-64
2023/10/15 05:30:41;;;;;;;8.13;1.35;;;7.10;99.90;;;;;;5032377;28;20179;-61
2023/10/15 05:33:07;;;;;;;11.77;1.85;;;7.00;99.90;;;;;;5015004;28;20671;-61
2023/10/15 05:35:40;;;;;;;6.60;1.85;;;7.10;99.90;;;;;;5015121;28;20608;-61
2023/10/15 05:38:09;;;;;;;8.50;2.13;;;7.10;99.90;;;;;;5032594;28;20539;-62
2023/10/15 05:40:37;;;;;;;9.82;2.28;;;7.10;99.90;;;;;;5033620;28;20220;-62
2023/10/15 05:43:04;;;;;;;7.63;2.78;;;7.20;99.90;;;;;;5036227;28;20203;-62
2023/10/15 05:45:30;;;;;;;11.82;2.88;;;7.20;99.90;;;;;;5036583;28;20191;-63
2023/10/15 05:47:57;;;;;;;9.02;3.20;;;7.20;99.90;;;;;;5019087;28;20183;-61
2023/10/15 05:50:23;;;;;;;11.60;3.38;;;7.30;99.90;;;;;;5036922;28;20224;-61
2023/10/15 05:52:50;;;;;;;16.65;3.22;;;7.30;99.90;;;;;;5035732;28;20426;-63
2023/10/15 05:55:19;;;;;;;7.38;1.77;;;7.40;99.90;;;;;;5036687;28;20661;-63
2023/10/15 05:57:46;;;;;;;9.63;1.83;;;7.40;99.90;;;;;;5018511;28;20172;-63
2023/10/15 06:00:19;;;;;;;8.95;1.60;;;7.30;99.90;;;;;;5035923;28;20177;-62
2023/10/15 06:02:45;;;;;;;8.63;1.65;;;7.20;99.90;;;;;;5036117;28;20192;-62
2023/10/15 06:05:14;;;;;;;6.68;1.40;;;7.10;99.90;;;;;;5035876;28;20229;-62
2023/10/15 06:07:42;;;;;;;11.50;1.63;;;7.10;99.90;;;;;;5036277;28;20214;-62
2023/10/15 06:10:09;;;;;;;6.20;1.33;;;7.00;99.90;;;;;;5035922;28;20698;-60
2023/10/15 06:12:36;;;;;;;8.07;1.80;;;7.00;99.90;;;;;;5035766;28;20183;-62
2023/10/15 06:15:01;;;;;;;10.65;1.88;;;7.00;99.90;;;;;;5034614;28;20662;-61
2023/10/15 06:17:27;;;;;;;6.35;1.42;;;7.00;99.90;;;;;;5035693;28;20183;-62
2023/10/15 06:19:54;;;;;;;4.03;1.40;;;7.00;99.90;;;;;;5035581;28;20192;-63
2023/10/15 06:22:20;;;;;;;10.52;1.60;;;7.10;99.90;;;;;;5017916;28;20269;-61
2023/10/15 06:24:46;;;;;;;7.25;1.48;;;7.10;99.90;;;;;;5018187;28;20632;-62
2023/10/15 06:27:13;;;;;;;4.10;1.70;;;7.10;99.90;;;;;;5035428;28;20184;-61
2023/10/15 06:29:39;;;;;;;6.35;1.70;;;7.10;99.90;;;;;;5018377;28;20640;-62
2023/10/15 06:32:05;;;;;;;12.73;2.40;;;7.10;99.90;;;;;;5002444;28;20187;-63
2023/10/15 06:34:32;;;;;;;13.32;2.30;;;7.10;99.90;;;;;;5036202;28;20665;-63
2023/10/15 06:36:59;;;;;;;4.53;1.63;;;7.10;99.90;;;;;;5035706;28;20180;-64
2023/10/15 06:39:27;;;;;;;9.07;1.60;;;7.10;99.90;;;;;;5035615;28;20271;-63
2023/10/15 06:41:53;;;;;;;11.75;1.95;;;7.10;99.90;;;;;;5035239;28;20200;-60
2023/10/15 06:44:19;;;;;;;9.32;2.38;;;7.00;99.90;;;;;;5035231;28;20258;-62
2023/10/15 06:46:46;;;;;;;8.52;1.73;;;7.00;99.90;;;;;;5035605;28;20215;-61
2023/10/15 06:49:12;;;;;;;6.70;1.52;;;7.00;99.90;;;;;;5033797;28;20223;-61
2023/10/15 06:51:39;;;;;;;8.65;1.70;;;7.00;99.90;;;;;;5034891;28;20180;-61
2023/10/15 06:54:06;;;;;;;8.73;2.10;;;7.00;99.90;;;;;;5035003;28;20180;-60
2023/10/15 06:56:32;;;;;;;12.55;2.58;;;7.10;99.90;;;;;;5033916;28;20195;-60
2023/10/15 06:58:57;;;;;;;7.25;2.38;;;7.20;99.90;;;;;;5034873;28;20184;-59
2023/10/15 07:01:26;;;;;;;6.32;2.25;;;7.30;99.90;;;;;;5034889;28;20192;-63
2023/10/15 07:03:52;;;;;;;7.82;2.00;;;7.40;99.90;;;;;;5017627;28;20195;-62
2023/10/15 07:06:19;;;;;;;4.75;1.63;;;7.40;99.90;;;;;;5033783;28;20590;-63
2023/10/15 07:08:45;;;;;;;7.95;1.90;;;7.50;99.90;;;;;;5034706;28;20659;-63
2023/10/15 07:11:11;;;;;;;8.05;1.95;;;7.50;99.90;;;;;;5035381;28;20187;-61
2023/10/15 07:13:37;;;;;;;17.10;2.20;;;7.50;99.90;;;;;;5035127;28;20191;-63
2023/10/15 07:16:06;;;;;;;11.55;2.70;;;7.40;99.90;;;;;;5017145;28;20592;-62
2023/10/15 07:18:33;;;;;;;7.95;1.40;;;7.40;99.90;;;;;;5035075;28;20280;-62
2023/10/15 07:20:59;;;;;;;5.10;1.60;;;7.30;99.90;;;;;;5034877;28;20429;-63
2023/10/15 07:23:25;;;;;;;5.68;1.20;;;7.30;99.90;;;;;;5034667;28;20204;-63
2023/10/15 07:25:51;;;;;;;11.25;1.58;;;7.20;99.90;;;;;;5017290;28;20191;-63
2023/10/15 07:28:17;;;;;;;6.43;1.77;;;7.20;99.90;;;;;;5016804;28;20180;-62
2023/10/15 07:30:43;;;;;;;9.15;1.63;;;7.20;99.90;;;;;;5034796;28;20278;-62
2023/10/15 07:33:10;;;;;;;12.95;3.05;;;7.20;99.90;;;;;;5034279;28;20187;-61
2023/10/15 07:35:36;;;;;;;13.05;4.03;;;7.20;99.90;;;;;;5017512;28;20524;-63
2023/10/15 07:38:02;;;;;;;14.02;4.45;;;7.30;99.90;;;;;;5034538;28;20627;-62
2023/10/15 07:40:28;;;;;;;8.75;3.05;;;7.30;99.90;;;;;;5034957;28;20180;-62
2023/10/15 07:42:59;;;;;;;8.20;2.00;;;7.30;99.90;;;;;;5034445;28;20749;-63
2023/10/15 07:45:30;;;;;;;8.48;2.10;;;7.30;99.90;;;;;;5034275;28;20175;-63
2023/10/15 07:47:59;;;;;;;5.40;2.08;;;7.30;99.90;;;;;;5034430;28;20507;-62
2023/10/15 07:50:26;;;;;;;8.15;2.00;;;7.40;99.90;;;;;;5034132;28;20227;-63
2023/10/15 07:52:54;;;;;;;6.38;1.90;;;7.40;99.90;;;;;;5016718;28;20640;-63
2023/10/15 07:55:23;;;;;;;7.68;1.80;;;7.40;99.90;;;;;;5034141;28;20176;-61
2023/10/15 07:57:51;;;;;;;9.77;2.00;;;7.40;99.90;;;;;;5033708;28;20259;-62
2023/10/15 08:00:22;;;;;;;5.15;1.75;;;7.50;99.90;;;;;;5032558;28;20195;-63
2023/10/15 08:02:57;;;;;;;4.10;1.70;;;7.60;99.90;;;;;;5032349;28;20196;-63
2023/10/15 08:05:23;;;;;;;6.78;1.40;;;7.70;99.90;;;;;;5015964;28;20164;-63
2023/10/15 08:07:50;;;;;;;6.03;1.58;;;7.70;99.90;;;;;;5033693;28;20187;-63
2023/10/15 08:10:17;;;;;;;6.88;1.48;;;7.70;99.90;;;;;;5033457;28;20195;-63
2023/10/15 08:12:44;;;;;;;6.75;1.70;;;7.70;99.90;;;;;;5016262;28;20191;-63
2023/10/15 08:15:11;;;;;;;7.85;2.05;;;7.70;99.90;;;;;;5033610;28;20192;-62
2023/10/15 08:17:37;;;;;;;5.18;1.77;;;7.70;99.90;;;;;;5033440;28;20230;-62
2023/10/15 08:20:04;;;;;;;6.30;1.88;;;7.70;99.90;;;;;;5033772;28;20184;-61
2023/10/15 08:22:30;;;;;;;9.35;2.00;;;7.70;99.90;;;;;;5033742;28;20204;-63
2023/10/15 08:24:56;;;;;;;8.38;2.00;;;7.80;99.90;;;;;;5015965;28;20196;-62
2023/10/15 08:27:22;;;;;;;7.32;2.10;;;7.90;99.90;;;;;;5033383;28;20535;-63
2023/10/15 08:29:48;;;;;;;10.50;2.60;;;8.10;99.90;;;;;;5033655;28;20182;-63
2023/10/15 08:32:16;;;;;;;7.72;1.90;;;8.40;99.90;;;;;;5015861;28;20172;-63
2023/10/15 08:34:46;;;;;;;7.95;1.90;;;8.60;99.90;;;;;;5015916;28;20212;-64
2023/10/15 08:37:13;;;;;;;8.45;1.73;;;8.80;99.90;;;;;;5033460;28;20207;-63
2023/10/15 08:39:39;;;;;;;6.60;1.45;;;8.80;99.90;;;;;;5015294;28;20179;-65
2023/10/15 08:42:20;;;;;;;9.98;2.63;;;8.80;99.90;;;;;;5031624;28;20208;-64
2023/10/15 08:44:49;;;;;;;11.95;2.55;;;8.80;99.90;;;;;;5015322;28;20164;-65
2023/10/15 08:47:16;;;;;;;9.55;2.40;;;8.70;99.90;;;;;;5032863;28;20184;-64
2023/10/15 08:49:49;;;;;;;10.52;1.52;;;8.70;99.90;;;;;;5033014;28;20306;-64
2023/10/15 08:52:16;;;;;;;11.07;1.55;;;8.50;99.90;;;;;;5016141;28;20601;-63
2023/10/15 08:54:45;;;;;;;5.15;1.42;;;8.10;99.90;;;;;;5033541;28;20180;-63
2023/10/15 08:57:11;;;;;;;5.25;1.42;;;7.90;99.90;;;;;;5032896;28;20172;-63
2023/10/15 08:59:38;;;;;;;7.55;1.60;;;7.70;99.90;;;;;;5015449;28;20191;-61
2023/10/15 09:02:05;;;;;;;7.28;1.33;;;7.60;99.90;;;;;;5015025;28;20671;-63
2023/10/15 09:04:32;;;;;;;6.38;1.50;;;7.60;99.90;;;;;;5033048;28;20188;-62
2023/10/15 09:07:01;;;;;;;6.20;1.45;;;7.60;99.90;;;;;;5015111;28;20188;-63
2023/10/15 09:09:34;;;;;;;8.48;1.48;;;7.70;99.90;;;;;;5015719;28;20295;-62
2023/10/15 09:12:01;;;;;;;5.60;1.20;;;7.60;99.90;;;;;;5032945;28;20262;-63
2023/10/15 09:14:43;;;;;;;7.47;1.20;;;7.70;99.90;;;;;;5034432;28;20190;-63
2023/10/15 09:17:15;;;;;;;5.63;1.35;;;7.70;99.90;;;;;;5019252;28;20686;-63
2023/10/15 09:19:48;;;;;;;5.22;1.20;;;7.70;99.90;;;;;;5036713;28;20171;-62
2023/10/15 09:22:14;;;;;;;5.47;1.50;;;7.80;99.90;;;;;;5037056;28;20278;-63
2023/10/15 09:24:44;;;;;;;7.25;1.52;;;7.80;99.90;;;;;;5036888;28;20680;-63
2023/10/15 09:27:10;;;;;;;9.90;1.50;;;7.90;99.90;;;;;;5035527;28;20571;-63
2023/10/15 09:29:36;;;;;;;7.15;1.50;;;8.00;99.90;;;;;;5036870;28;20214;-63
2023/10/15 09:32:04;;;;;;;6.80;1.38;;;8.10;99.90;;;;;;5003456;28;20184;-63
2023/10/15 09:34:31;;;;;;;7.25;1.55;;;8.20;99.90;;;;;;5036566;28;20180;-63
2023/10/15 09:36:58;;;;;;;11.10;1.70;;;8.30;99.90;;;;;;5036222;28;20607;-63
2023/10/15 09:39:29;;;;;;;8.63;1.83;;;8.30;99.90;;;;;;5018576;28;20180;-64
2023/10/15 09:41:56;;;;;;;12.00;1.67;;;8.50;99.90;;;;;;5019037;28;20207;-64
2023/10/15 09:44:24;;;;;;;11.13;1.75;;;8.60;99.90;;;;;;5036337;28;20184;-63
2023/10/15 09:46:50;;;;;;;6.22;1.30;;;8.70;99.90;;;;;;5036156;28;20188;-63
2023/10/15 09:49:18;;;;;;;8.00;1.50;;;8.80;99.90;;;;;;5018203;28;20595;-63
2023/10/15 09:51:49;;;;;;;6.70;1.60;;;8.80;99.90;;;;;;5017999;28;20334;-64
2023/10/15 09:54:19;;;;;;;12.63;1.92;;;8.90;99.90;;;;;;5036371;28;20568;-63
2023/10/15 09:56:50;;;;;;;7.05;1.40;;;8.90;99.90;;;;;;5035800;28;20647;-65
2023/10/15 09:59:17;;;;;;;12.63;2.22;;;9.00;99.90;;;;;;5035373;28;20218;-64
2023/10/15 10:01:53;;;;;;;2.95;1.13;;;9.10;99.90;;;;;;5034304;28;20629;-64
2023/10/15 10:04:25;;;;;;;5.30;1.40;;;9.20;99.90;;;;;;5035851;28;20172;-64
2023/10/15 10:07:09;;;;;;;10.00;1.60;;;9.30;99.90;;;;;;5035805;28;20175;-64
2023/10/15 10:10:19;;;;;;;6.45;1.67;;;9.40;99.90;;;;;;5018854;28;20506;-63
2023/10/15 10:13:02;;;;;;;7.18;1.63;;;9.70;99.90;;;;;;5013424;28;20564;-63
2023/10/15 10:15:49;;;;;;;9.70;1.75;;;9.90;99.90;;;;;;5035407;28;20275;-63
2023/10/15 10:18:16;;;;;;;6.05;1.80;;;10.20;99.90;;;;;;5035397;28;20172;-64
2023/10/15 10:20:47;;;;;;;7.80;1.88;;;10.50;99.90;;;;;;5035526;28;20187;-63
2023/10/15 10:23:14;;;;;;;7.72;1.75;;;10.60;99.90;;;;;;5035688;28;20225;-65
2023/10/15 10:25:45;;;;;;;8.27;1.60;;;10.50;99.90;;;;;;5034903;28;20274;-64
2023/10/15 10:28:13;;;;;;;4.20;1.42;;;10.40;99.90;;;;;;5035074;28;20198;-65
2023/10/15 10:30:53;;;;;;;8.70;1.90;;;10.30;99.90;;;;;;5017714;28;20283;-63
2023/10/15 10:34:01;;;;;;;7.57;1.65;;;10.30;99.90;;;;;;5035521;28;20171;-64
2023/10/15 10:36:30;;;;;;;6.38;1.55;;;10.20;99.90;;;;;;5013148;28;20231;-65
2023/10/15 10:39:08;;;;;;;5.03;1.23;;;10.20;99.90;;;;;;5013145;28;20189;-65
2023/10/15 10:41:39;;;;;;;4.78;1.38;;;10.30;99.90;;;;;;5025917;28;20282;-66
2023/10/15 10:44:29;;;;;;;6.35;1.38;;;10.50;99.90;;;;;;5035316;28;20163;-64
2023/10/15 10:46:56;;;;;;;5.10;1.40;;;10.80;99.90;;;;;;5032414;28;20282;-66
2023/10/15 10:49:37;;;;;;;6.75;1.42;;;11.00;99.90;;;;;;5034440;28;20278;-64
2023/10/15 10:52:14;;;;;;;4.78;1.20;;;11.10;99.90;;;;;;5035452;28;20186;-64
2023/10/15 10:54:40;;;;;;;6.50;1.60;;;11.10;99.90;;;;;;5035500;28;20230;-64
2023/10/15 10:57:07;;;;;;;9.52;1.67;;;11.00;99.90;;;;;;5035367;28;20211;-63
2023/10/15 10:59:38;;;;;;;4.07;1.30;;;10.90;99.90;;;;;;5034495;28;20519;-64
2023/10/15 11:02:11;;;;;;;2.38;1.17;;;10.90;99.90;;;;;;5033905;28;20195;-64
2023/10/15 11:04:41;;;;;;;10.38;1.75;;;10.90;99.90;;;;;;5035079;28;20168;-63
2023/10/15 11:07:14;;;;;;;7.97;1.42;;;10.90;99.90;;;;;;5016782;28;20624;-65
2023/10/15 11:09:43;;;;;;;6.53;1.45;;;11.00;99.90;;;;;;5034334;28;20237;-64
2023/10/15 11:12:09;;;;;;;5.03;1.45;;;11.10;99.90;;;;;;5034677;28;20191;-63
2023/10/15 11:14:36;;;;;;;6.40;1.35;;;11.10;99.90;;;;;;5034715;28;20620;-64
2023/10/15 11:17:04;;;;;;;5.07;1.20;;;11.00;99.90;;;;;;5016839;28;20184;-64
2023/10/15 11:19:30;;;;;;;6.75;1.58;;;10.90;99.90;;;;;;5034316;28;20184;-64
2023/10/15 11:21:57;;;;;;;6.38;1.60;;;10.90;99.90;;;;;;5033888;28;20203;-64
2023/10/15 11:24:24;;;;;;;9.40;1.73;;;10.90;99.90;;;;;;5034655;28;20643;-64
2023/10/15 11:26:53;;;;;;;9.38;1.85;;;11.00;99.90;;;;;;5034125;28;20199;-63
2023/10/15 11:29:20;;;;;;;6.90;1.35;;;11.10;99.90;;;;;;5033753;28;20176;-64
2023/10/15 11:31:55;;;;;;;4.57;1.60;;;11.40;99.90;;;;;;5034570;28;20191;-65
2023/10/15 11:34:31;;;;;;;5.55;1.60;;;11.50;99.90;;;;;;5017122;28;20176;-67
2023/10/15 11:42:03;;;;;;;7.55;2.50;;;11.50;99.90;;;;;;5017118;28;20560;-64
2023/10/15 11:44:32;;;;;;;6.65;1.83;;;11.50;99.90;;;;;;5033883;28;20184;-64
2023/10/15 11:47:08;;;;;;;12.05;1.88;;;11.40;99.90;;;;;;5015999;28;20183;-64
2023/10/15 11:49:38;;;;;;;8.43;1.63;;;11.40;99.90;;;;;;5033744;28;20243;-65
2023/10/15 11:52:11;;;;;;;9.63;1.77;;;11.30;99.90;;;;;;5032397;28;20319;-65
2023/10/15 11:54:43;;;;;;;9.30;2.00;;;11.30;99.90;;;;;;5033903;28;20247;-66
2023/10/15 11:57:16;;;;;;;8.55;1.58;;;11.30;99.90;;;;;;5033888;28;20165;-64
2023/10/15 11:59:45;;;;;;;8.25;1.77;;;11.40;99.90;;;;;;5016364;28;20289;-66
2023/10/15 12:02:11;;;;;;;6.75;1.35;;;11.40;99.90;;;;;;5015365;28;20338;-66
2023/10/15 12:04:38;;;;;;;10.07;1.70;;;11.50;99.90;;;;;;5032987;28;20588;-66
2023/10/15 12:07:06;;;;;;;6.85;1.55;;;11.60;99.90;;;;;;5033375;28;20180;-67
2023/10/15 12:09:32;;;;;;;9.95;1.50;;;11.70;99.90;;;;;;5031814;28;20183;-67
2023/10/15 12:11:59;;;;;;;7.93;2.22;;;11.80;99.90;;;;;;5015747;28;20234;-65
2023/10/15 12:14:25;;;;;;;6.85;1.33;;;11.90;99.90;;;;;;5015562;28;20258;-66
2023/10/15 12:16:51;;;;;;;8.43;1.50;;;11.90;99.90;;;;;;5033386;28;20624;-66
2023/10/15 12:19:17;;;;;;;9.80;2.25;;;11.80;99.90;;;;;;5032671;28;20194;-66
2023/10/15 12:21:43;;;;;;;6.35;1.75;;;11.70;99.90;;;;;;5032859;28;20218;-66
2023/10/15 12:24:11;;;;;;;12.52;1.75;;;11.60;99.90;;;;;;5015455;28;20710;-67
2023/10/15 12:26:37;;;;;;;8.30;1.63;;;11.60;99.90;;;;;;5032794;28;20216;-65
2023/10/15 12:29:03;;;;;;;8.55;2.05;;;11.60;99.90;;;;;;5032693;28;20180;-65
2023/10/15 12:31:32;;;;;;;7.15;1.65;;;11.70;99.90;;;;;;5031544;28;20176;-65
2023/10/15 12:34:02;;;;;;;10.13;1.58;;;11.70;99.90;;;;;;5032686;28;20176;-63
2023/10/15 12:36:28;;;;;;;7.88;1.88;;;11.80;99.90;;;;;;5032731;28;20267;-64
2023/10/15 12:38:56;;;;;;;9.13;1.60;;;11.80;99.90;;;;;;5032904;28;20180;-61
2023/10/15 12:41:25;;;;;;;7.00;1.67;;;12.00;99.90;;;;;;5032696;28;20188;-64
2023/10/15 12:44:00;;;;;;;7.63;1.70;;;12.20;99.90;;;;;;5032761;28;20222;-62
2023/10/15 12:46:29;;;;;;;5.95;0.90;;;12.30;99.90;;;;;;5033199;28;20183;-63
2023/10/15 12:48:56;;;;;;;5.53;1.17;;;12.50;99.90;;;;;;5031853;28;20176;-63
2023/10/15 12:51:23;;;;;;;3.88;1.10;;;12.40;99.90;;;;;;5032629;28;20180;-63
2023/10/15 12:53:50;;;;;;;4.70;1.25;;;12.30;99.90;;;;;;5032595;28;20272;-66
2023/10/15 12:56:16;;;;;;;5.57;1.20;;;12.30;99.90;;;;;;5032226;28;20179;-68
2023/10/15 12:58:42;;;;;;;4.72;1.60;;;12.20;99.90;;;;;;5031006;28;20255;-64
2023/10/15 13:01:08;;;;;;;5.57;1.30;;;12.10;99.90;;;;;;5032385;28;20182;-64
2023/10/15 13:03:33;;;;;;;4.47;1.50;;;12.10;99.90;;;;;;5032478;28;20207;-65
2023/10/15 13:06:00;;;;;;;6.28;1.50;;;12.00;99.90;;;;;;5014609;28;20184;-66
2023/10/15 13:08:26;;;;;;;6.43;1.33;;;12.00;99.90;;;;;;5014658;28;20516;-68
2023/10/15 13:10:52;;;;;;;5.03;1.52;;;12.10;99.90;;;;;;5032693;28;20184;-66
2023/10/15 13:13:18;;;;;;;7.18;1.45;;;12.10;99.90;;;;;;5032628;28;20249;-66
2023/10/15 13:15:45;;;;;;;8.40;1.70;;;12.10;99.90;;;;;;5032623;28;20266;-65
2023/10/15 13:18:11;;;;;;;12.32;1.90;;;12.00;99.90;;;;;;5032661;28;20196;-67
2023/10/15 13:20:39;;;;;;;7.75;1.45;;;12.00;99.90;;;;;;5032233;28;20702;-67